Terminal Aerodrome Forecast
Issued by NWS

Current Version | Previous Version | Text Only | Print | Product List | Glossary On
Versions: 1 2 3 4 5 6 7 8 9 10 11 12 13 14
000
FTUS42 TJSJ 240523
TAFIST
TAF
TIST 240523Z 2406/2506 09006KT P6SM FEW026 OVC035
     FM241300 13013KT P6SM SCT030
     FM242300 09008KT P6SM FEW025=

USA.gov is the U.S. government's official web portal to all federal, state and local government web resources and services.